createdAt,value
2022-07-26T00:00:57.445Z,23.01
2022-07-26T00:03:24.676Z,23.14
2022-07-26T00:05:53.290Z,23.31
2022-07-26T00:08:20.641Z,23.47
2022-07-26T00:10:51.217Z,23.60
2022-07-26T00:13:21.512Z,23.68
2022-07-26T00:15:50.673Z,23.78
2022-07-26T00:18:37.480Z,23.88
2022-07-26T00:21:06.542Z,23.98
2022-07-26T00:23:35.729Z,24.05
2022-07-26T00:26:03.342Z,24.10
2022-07-26T00:28:30.361Z,24.16
2022-07-26T00:30:57.307Z,24.20
2022-07-26T00:33:24.702Z,24.25
2022-07-26T00:35:51.926Z,24.26
2022-07-26T00:38:20.568Z,24.29
2022-07-26T00:40:47.427Z,24.35
2022-07-26T00:43:14.601Z,24.40
2022-07-26T00:45:41.767Z,24.39
2022-07-26T00:48:09.081Z,24.43
2022-07-26T00:50:36.470Z,24.44
2022-07-26T00:53:03.505Z,24.46
2022-07-26T00:55:32.093Z,24.48
2022-07-26T00:57:59.061Z,24.50
2022-07-26T01:00:25.981Z,24.47
2022-07-26T01:02:53.014Z,24.43
2022-07-26T01:05:20.181Z,24.48
2022-07-26T01:07:49.397Z,24.32
2022-07-26T01:10:18.599Z,24.09
2022-07-26T01:12:46.926Z,24.12
2022-07-26T01:15:16.003Z,24.16
2022-07-26T01:17:44.313Z,24.22
2022-07-26T01:20:13.506Z,23.51
2022-07-26T01:22:42.069Z,23.23
2022-07-26T01:25:10.546Z,23.35
2022-07-26T01:27:38.754Z,23.21
2022-07-26T01:30:09.759Z,22.85
2022-07-26T01:32:37.178Z,22.70
2022-07-26T01:35:07.471Z,22.85
2022-07-26T01:37:34.477Z,22.81
2022-07-26T01:40:05.359Z,22.73
2022-07-26T01:42:34.330Z,22.57
2022-07-26T01:45:01.639Z,22.19
2022-07-26T01:47:28.818Z,21.77
2022-07-26T01:49:56.139Z,21.79
2022-07-26T01:52:23.009Z,21.80
2022-07-26T01:54:49.924Z,21.69
2022-07-26T01:57:18.363Z,21.71
2022-07-26T01:59:45.249Z,21.83
2022-07-26T02:02:13.016Z,21.92
2022-07-26T02:04:39.961Z,21.68
2022-07-26T02:07:12.961Z,21.76
2022-07-26T02:09:40.726Z,21.56
2022-07-26T02:12:08.433Z,21.34
2022-07-26T02:14:36.879Z,21.29
2022-07-26T02:17:04.176Z,21.14
2022-07-26T02:19:31.804Z,21.08
2022-07-26T02:21:59.465Z,20.98
2022-07-26T02:24:28.263Z,20.93
2022-07-26T02:26:55.542Z,20.97
2022-07-26T02:29:22.791Z,20.93
2022-07-26T02:31:52.180Z,20.84
2022-07-26T02:34:19.503Z,20.94
2022-07-26T02:36:46.524Z,20.99
2022-07-26T02:39:13.889Z,20.90
2022-07-26T02:41:40.849Z,21.01
2022-07-26T02:44:09.597Z,20.79
2022-07-26T02:46:37.248Z,20.86
2022-07-26T02:49:05.959Z,20.76
2022-07-26T02:51:32.848Z,20.77
2022-07-26T02:54:00.235Z,20.83
2022-07-26T02:56:27.452Z,20.83
2022-07-26T02:58:54.560Z,20.70
2022-07-26T03:01:22.355Z,20.64
2022-07-26T03:03:50.990Z,20.88
2022-07-26T03:06:20.742Z,20.92
2022-07-26T03:08:48.738Z,20.86
2022-07-26T03:11:16.429Z,20.94
2022-07-26T03:13:43.245Z,21.14
2022-07-26T03:16:10.890Z,21.29
2022-07-26T03:18:37.919Z,21.35
2022-07-26T03:21:05.396Z,21.46
2022-07-26T03:23:33.794Z,21.19
2022-07-26T03:26:02.231Z,21.19
2022-07-26T03:28:30.632Z,20.99
2022-07-26T03:30:58.287Z,20.99
2022-07-26T03:33:25.508Z,21.19
2022-07-26T03:35:52.927Z,21.22
2022-07-26T03:38:19.810Z,21.30
2022-07-26T03:40:48.490Z,21.28
2022-07-26T03:43:15.422Z,21.16
2022-07-26T03:45:42.854Z,21.22
2022-07-26T03:48:09.933Z,21.37
2022-07-26T03:50:37.325Z,21.52
2022-07-26T03:53:04.960Z,21.70
2022-07-26T03:55:32.024Z,21.83
2022-07-26T03:58:00.589Z,21.94
2022-07-26T04:00:27.783Z,21.97
2022-07-26T04:02:54.946Z,22.03
2022-07-26T04:05:23.546Z,21.97
2022-07-26T04:07:53.827Z,21.91
2022-07-26T04:10:22.346Z,21.90
2022-07-26T04:12:49.243Z,22.03
2022-07-26T04:15:18.669Z,22.14
2022-07-26T04:17:45.636Z,22.23
2022-07-26T04:20:37.242Z,22.28
2022-07-26T04:23:04.812Z,22.30
2022-07-26T04:25:41.115Z,22.27
2022-07-26T04:28:08.861Z,22.34
2022-07-26T04:30:38.593Z,22.38
2022-07-26T04:33:10.181Z,22.40
2022-07-26T04:35:38.822Z,22.42
2022-07-26T04:38:05.781Z,22.47
2022-07-26T04:40:32.740Z,22.59
2022-07-26T04:43:00.349Z,22.98
2022-07-26T04:45:28.342Z,23.48
2022-07-26T04:47:56.822Z,23.93
2022-07-26T04:50:27.289Z,24.20
2022-07-26T04:52:54.948Z,24.51
2022-07-26T04:55:23.398Z,24.93
2022-07-26T04:57:51.257Z,25.57
2022-07-26T05:00:24.630Z,25.81
2022-07-26T05:02:54.395Z,25.50
2022-07-26T05:05:24.285Z,25.29
2022-07-26T05:07:54.511Z,25.23
2022-07-26T05:10:27.469Z,24.86
2022-07-26T05:12:54.603Z,24.51
2022-07-26T05:15:21.455Z,24.37
2022-07-26T05:17:48.545Z,24.08
2022-07-26T05:20:16.565Z,23.91
2022-07-26T05:22:45.175Z,25.11
2022-07-26T05:25:12.603Z,25.99
2022-07-26T05:27:39.498Z,26.67
2022-07-26T05:30:08.514Z,27.37
2022-07-26T05:32:35.319Z,27.61
2022-07-26T05:35:02.869Z,28.07
2022-07-26T05:37:29.874Z,28.60
2022-07-26T05:39:58.314Z,28.37
2022-07-26T05:42:25.209Z,27.22
2022-07-26T05:44:52.377Z,26.66
2022-07-26T05:47:19.212Z,26.10
2022-07-26T05:49:49.762Z,25.64
2022-07-26T05:52:16.773Z,25.14
2022-07-26T05:54:43.615Z,25.20
2022-07-26T05:57:11.806Z,25.88
2022-07-26T05:59:38.902Z,25.91
2022-07-26T06:02:05.852Z,25.82
2022-07-26T06:04:32.818Z,25.93
2022-07-26T06:06:59.918Z,25.99
2022-07-26T06:09:26.837Z,26.43
2022-07-26T06:11:53.809Z,27.34
2022-07-26T06:14:22.110Z,28.81
2022-07-26T06:16:50.669Z,30.20
2022-07-26T06:19:18.108Z,30.90
2022-07-26T06:21:44.928Z,31.81
2022-07-26T06:24:13.300Z,31.67
2022-07-26T06:26:40.735Z,31.67
2022-07-26T06:29:08.588Z,32.18
2022-07-26T06:31:36.780Z,33.16
2022-07-26T06:34:03.659Z,32.76
2022-07-26T06:36:31.444Z,33.29
2022-07-26T06:38:58.670Z,32.94
2022-07-26T06:41:28.426Z,32.77
2022-07-26T06:43:55.445Z,32.43
2022-07-26T06:46:22.523Z,31.35
2022-07-26T06:48:52.631Z,32.97
2022-07-26T06:51:20.528Z,32.63
2022-07-26T06:53:47.718Z,33.38
2022-07-26T06:56:17.011Z,34.12
2022-07-26T06:58:44.535Z,33.94
2022-07-26T07:01:11.449Z,34.10
2022-07-26T07:03:39.042Z,34.41
2022-07-26T07:06:07.267Z,34.25
2022-07-26T07:08:34.272Z,33.61
2022-07-26T07:11:02.286Z,33.64
2022-07-26T07:13:30.575Z,33.50
2022-07-26T07:15:57.527Z,33.63
2022-07-26T07:18:24.488Z,33.80
2022-07-26T07:20:51.368Z,33.82
2022-07-26T07:23:19.605Z,33.67
2022-07-26T07:25:46.516Z,34.65
2022-07-26T07:28:16.545Z,34.09
2022-07-26T07:30:46.219Z,34.31
2022-07-26T07:33:22.543Z,33.25
2022-07-26T07:35:51.015Z,31.58
2022-07-26T07:38:19.954Z,31.25
2022-07-26T07:40:49.583Z,31.23
2022-07-26T07:43:16.713Z,31.34
2022-07-26T07:45:43.852Z,31.03
2022-07-26T07:48:15.416Z,31.36
2022-07-26T07:50:42.819Z,31.06
2022-07-26T07:53:09.772Z,30.79
2022-07-26T07:55:41.521Z,30.69
2022-07-26T07:58:11.107Z,30.46
2022-07-26T08:00:39.000Z,30.18
2022-07-26T08:03:05.936Z,29.99
2022-07-26T08:05:32.788Z,29.92
2022-07-26T08:07:59.849Z,30.11
2022-07-26T08:10:27.172Z,29.99
2022-07-26T08:12:55.307Z,29.93
2022-07-26T08:15:23.091Z,29.94
2022-07-26T08:17:54.699Z,29.04
2022-07-26T08:20:22.908Z,29.20
2022-07-26T08:22:52.325Z,28.98
2022-07-26T08:25:19.585Z,28.94
2022-07-26T08:28:02.592Z,29.20
2022-07-26T08:30:32.592Z,28.91
2022-07-26T08:32:59.482Z,28.59
2022-07-26T08:35:26.750Z,28.89
2022-07-26T08:37:53.582Z,28.81
2022-07-26T08:40:21.155Z,28.88
2022-07-26T08:42:52.506Z,28.89
2022-07-26T08:45:23.233Z,29.15
2022-07-26T08:48:16.254Z,29.12
2022-07-26T08:50:40.779Z,29.00
2022-07-26T08:53:08.492Z,28.78
2022-07-26T08:56:04.221Z,28.72
2022-07-26T08:58:23.777Z,28.49
2022-07-26T09:01:05.030Z,28.59
2022-07-26T09:03:34.062Z,28.51
2022-07-26T09:06:13.062Z,28.55
2022-07-26T09:08:39.995Z,28.56
2022-07-26T09:11:30.782Z,28.71
2022-07-26T09:14:00.730Z,28.31
2022-07-26T09:16:29.858Z,28.01
2022-07-26T09:19:16.710Z,28.03
2022-07-26T09:21:43.795Z,28.17
2022-07-26T09:24:11.108Z,28.23
2022-07-26T09:26:39.147Z,28.10
2022-07-26T09:29:10.438Z,28.22
2022-07-26T09:31:39.995Z,28.16
2022-07-26T09:34:10.517Z,28.21
2022-07-26T09:36:51.473Z,28.28
2022-07-26T09:39:22.746Z,28.49
2022-07-26T09:42:26.898Z,28.70
2022-07-26T09:44:55.590Z,28.05
2022-07-26T09:47:34.666Z,28.21
2022-07-26T09:50:12.694Z,28.25
2022-07-26T09:52:40.247Z,28.26
2022-07-26T09:55:09.762Z,28.32
2022-07-26T09:57:37.012Z,28.74
2022-07-26T10:00:07.843Z,28.62
2022-07-26T10:02:35.341Z,28.75
2022-07-26T10:05:02.287Z,28.79
2022-07-26T10:07:31.670Z,28.88
2022-07-26T10:10:07.480Z,28.79
2022-07-26T10:12:36.071Z,29.15
2022-07-26T10:15:04.117Z,29.48
2022-07-26T10:17:42.668Z,28.69
2022-07-26T10:20:26.806Z,29.17
2022-07-26T10:22:55.131Z,29.73
2022-07-26T10:25:48.294Z,29.63
2022-07-26T10:28:27.644Z,29.65
2022-07-26T10:31:30.027Z,29.80
2022-07-26T10:34:00.148Z,29.92
2022-07-26T10:36:34.561Z,30.10
2022-07-26T10:39:13.622Z,30.52
2022-07-26T10:41:45.263Z,30.41
2022-07-26T10:44:19.451Z,30.11
2022-07-26T10:46:59.728Z,30.08
2022-07-26T10:49:35.919Z,30.56
2022-07-26T10:52:14.632Z,31.08
2022-07-26T10:55:17.139Z,31.35
2022-07-26T10:57:47.393Z,30.27
2022-07-26T11:00:22.286Z,29.51
2022-07-26T11:02:56.402Z,29.50
2022-07-26T11:05:28.634Z,29.22
2022-07-26T11:08:00.686Z,28.91
2022-07-26T11:10:32.710Z,29.19
2022-07-26T11:13:09.750Z,29.76
2022-07-26T11:15:46.620Z,29.50
2022-07-26T11:18:24.549Z,30.43
2022-07-26T11:20:56.045Z,31.09
2022-07-26T11:23:33.702Z,31.16
2022-07-26T11:26:15.816Z,31.92
2022-07-26T11:28:57.149Z,32.09
2022-07-26T11:31:55.386Z,32.26
2022-07-26T11:34:24.672Z,32.76
2022-07-26T11:36:56.316Z,32.60
2022-07-26T11:39:27.810Z,32.54
2022-07-26T11:42:01.146Z,32.75
2022-07-26T11:44:29.175Z,33.44
2022-07-26T11:46:57.019Z,33.09
2022-07-26T11:49:59.989Z,33.04
2022-07-26T11:52:25.210Z,33.23
2022-07-26T11:54:53.918Z,33.25
2022-07-26T11:57:28.983Z,32.83
2022-07-26T11:59:56.410Z,33.05
2022-07-26T12:02:23.616Z,32.52
2022-07-26T12:05:18.155Z,31.29
2022-07-26T12:07:55.891Z,30.92
2022-07-26T12:10:24.307Z,30.98
2022-07-26T12:13:10.486Z,31.65
2022-07-26T12:15:48.500Z,31.75
2022-07-26T12:18:24.042Z,31.36
2022-07-26T12:21:05.570Z,31.02
2022-07-26T12:23:44.798Z,30.83
2022-07-26T12:26:26.528Z,30.36
2022-07-26T12:28:56.141Z,29.96
2022-07-26T12:31:25.599Z,29.76
2022-07-26T12:33:53.004Z,29.77
2022-07-26T12:36:27.439Z,29.75
2022-07-26T12:38:57.807Z,29.87
2022-07-26T12:41:32.940Z,29.63
2022-07-26T12:44:26.489Z,29.45
2022-07-26T12:46:53.958Z,29.18
2022-07-26T12:49:23.851Z,28.96
2022-07-26T12:51:51.137Z,28.98
2022-07-26T12:54:18.063Z,29.08
2022-07-26T12:56:46.388Z,29.28
2022-07-26T12:59:17.649Z,29.48
2022-07-26T13:01:46.768Z,29.65
2022-07-26T13:04:14.423Z,29.56
2022-07-26T13:06:42.644Z,29.69
2022-07-26T13:09:09.774Z,29.81
2022-07-26T13:11:42.707Z,29.76
2022-07-26T13:14:09.935Z,29.36
2022-07-26T13:16:38.447Z,29.16
2022-07-26T13:19:07.209Z,29.11
2022-07-26T13:21:34.137Z,29.31
2022-07-26T13:24:01.315Z,29.36
2022-07-26T13:26:28.309Z,29.48
2022-07-26T13:28:55.243Z,29.63
2022-07-26T13:31:22.130Z,29.56
2022-07-26T13:33:49.105Z,29.60
2022-07-26T13:36:17.871Z,29.52
2022-07-26T13:38:44.748Z,29.59
2022-07-26T13:41:13.712Z,29.08
2022-07-26T13:43:40.837Z,29.09
2022-07-26T13:46:07.997Z,29.23
2022-07-26T13:48:35.563Z,29.24
2022-07-26T13:51:02.799Z,29.44
2022-07-26T13:53:31.157Z,29.48
2022-07-26T13:55:57.980Z,29.46
2022-07-26T13:58:25.177Z,29.55
2022-07-26T14:00:52.253Z,29.47
2022-07-26T14:03:19.976Z,28.52
2022-07-26T14:05:47.056Z,28.76
2022-07-26T14:08:16.777Z,28.85
2022-07-26T14:10:45.601Z,29.02
2022-07-26T14:13:12.937Z,29.04
2022-07-26T14:15:40.161Z,29.05
2022-07-26T14:18:07.020Z,28.83
2022-07-26T14:20:34.151Z,28.88
2022-07-26T14:23:01.130Z,28.95
2022-07-26T14:25:28.379Z,28.97
2022-07-26T14:27:56.811Z,28.90
2022-07-26T14:30:23.890Z,28.91
2022-07-26T14:32:51.680Z,28.88
2022-07-26T14:35:18.591Z,28.67
2022-07-26T14:37:50.920Z,28.72
2022-07-26T14:40:18.058Z,28.81
2022-07-26T14:42:46.609Z,28.97
2022-07-26T14:45:15.458Z,29.08
2022-07-26T14:47:43.640Z,29.02
2022-07-26T14:50:13.715Z,29.06
2022-07-26T14:52:44.675Z,28.85
2022-07-26T14:55:13.098Z,28.91
2022-07-26T14:57:41.484Z,28.84
2022-07-26T15:00:13.143Z,28.89
2022-07-26T15:02:45.801Z,28.89
2022-07-26T15:05:14.391Z,28.95
2022-07-26T15:07:42.580Z,28.91
2022-07-26T15:10:13.882Z,28.94
2022-07-26T15:12:42.776Z,28.89
2022-07-26T15:15:13.915Z,28.96
2022-07-26T15:17:44.562Z,28.93
2022-07-26T15:20:11.804Z,28.88
2022-07-26T15:22:39.392Z,28.83
2022-07-26T15:25:07.933Z,28.75
2022-07-26T15:27:34.931Z,28.81
2022-07-26T15:30:05.298Z,28.88
2022-07-26T15:32:35.717Z,28.79
2022-07-26T15:35:05.649Z,28.81
2022-07-26T15:37:32.747Z,28.84
2022-07-26T15:40:01.167Z,28.78
2022-07-26T15:42:30.909Z,28.62
2022-07-26T15:44:58.404Z,28.35
2022-07-26T15:47:53.055Z,28.36
2022-07-26T15:50:16.660Z,28.32
2022-07-26T15:52:50.780Z,28.36
2022-07-26T15:55:19.108Z,28.45
2022-07-26T15:57:47.329Z,28.43
2022-07-26T16:00:16.133Z,28.50
2022-07-26T16:02:43.659Z,28.48
2022-07-26T16:05:12.992Z,28.22
2022-07-26T16:07:41.187Z,28.30
2022-07-26T16:10:10.689Z,28.29
2022-07-26T16:12:38.772Z,28.40
2022-07-26T16:15:11.126Z,28.43
2022-07-26T16:17:39.425Z,28.50
2022-07-26T16:20:08.092Z,28.35
2022-07-26T16:22:36.529Z,28.27
2022-07-26T16:25:04.256Z,28.19
2022-07-26T16:27:31.374Z,28.22
2022-07-26T16:29:58.255Z,28.05
2022-07-26T16:32:25.215Z,27.98
2022-07-26T16:34:52.250Z,27.85
2022-07-26T16:37:23.232Z,27.75
2022-07-26T16:39:54.332Z,27.77
2022-07-26T16:42:21.805Z,27.77
2022-07-26T16:44:48.971Z,27.82
2022-07-26T16:47:18.797Z,27.75
2022-07-26T16:49:46.528Z,27.76
2022-07-26T16:52:13.985Z,27.84
2022-07-26T16:54:41.096Z,27.82
2022-07-26T16:57:26.251Z,27.80
2022-07-26T16:59:54.266Z,27.67
2022-07-26T17:02:21.741Z,27.59
2022-07-26T17:04:48.857Z,27.57
2022-07-26T17:07:25.469Z,27.67
2022-07-26T17:09:53.962Z,27.67
2022-07-26T17:12:22.810Z,27.71
2022-07-26T17:14:50.610Z,27.72
2022-07-26T17:17:17.827Z,27.58
2022-07-26T17:19:48.028Z,27.54
2022-07-26T17:22:16.321Z,27.46
2022-07-26T17:24:43.641Z,27.35
2022-07-26T17:27:10.904Z,27.29
2022-07-26T17:29:39.307Z,27.30
2022-07-26T17:32:07.418Z,27.31
2022-07-26T17:34:35.900Z,27.31
2022-07-26T17:37:07.005Z,27.29
2022-07-26T17:39:51.838Z,27.13
2022-07-26T17:42:20.136Z,27.12
2022-07-26T17:44:48.862Z,27.10
2022-07-26T17:47:28.173Z,27.10
2022-07-26T17:50:26.300Z,27.16
2022-07-26T17:52:50.465Z,27.11
2022-07-26T17:55:19.361Z,26.88
2022-07-26T17:57:49.725Z,26.87
2022-07-26T18:00:22.719Z,26.84
2022-07-26T18:02:50.008Z,26.78
2022-07-26T18:05:19.933Z,26.75
2022-07-26T18:07:46.952Z,26.68
2022-07-26T18:10:15.223Z,26.69
2022-07-26T18:12:45.248Z,26.64
2022-07-26T18:15:14.914Z,26.53
2022-07-26T18:17:43.368Z,26.44
2022-07-26T18:20:11.760Z,26.47
2022-07-26T18:22:39.031Z,26.48
2022-07-26T18:25:07.491Z,26.37
2022-07-26T18:27:50.915Z,26.33
2022-07-26T18:30:17.997Z,26.25
2022-07-26T18:32:46.200Z,26.23
2022-07-26T18:35:13.503Z,26.15
2022-07-26T18:37:40.363Z,26.13
2022-07-26T18:40:08.973Z,26.05
2022-07-26T18:42:36.230Z,26.03
2022-07-26T18:45:03.569Z,26.02
2022-07-26T18:47:30.736Z,26.03
2022-07-26T18:49:59.130Z,25.97
2022-07-26T18:52:32.139Z,25.86
2022-07-26T18:55:01.973Z,25.82
2022-07-26T18:57:28.973Z,25.78
2022-07-26T18:59:55.851Z,25.73
2022-07-26T19:02:22.818Z,25.62
2022-07-26T19:04:49.984Z,25.59
2022-07-26T19:07:18.193Z,25.57
2022-07-26T19:09:45.307Z,25.55
2022-07-26T19:12:12.472Z,25.54
2022-07-26T19:14:39.687Z,25.47
2022-07-26T19:17:06.761Z,25.41
2022-07-26T19:19:33.766Z,25.38
2022-07-26T19:22:03.197Z,25.33
2022-07-26T19:24:42.887Z,25.32
2022-07-26T19:27:09.962Z,25.24
2022-07-26T19:29:37.422Z,25.17
2022-07-26T19:32:07.717Z,25.12
2022-07-26T19:34:35.458Z,25.05
2022-07-26T19:37:03.726Z,25.00
2022-07-26T19:39:31.639Z,24.92
2022-07-26T19:47:25.408Z,24.73
2022-07-26T19:49:53.247Z,24.54
2022-07-26T19:52:33.329Z,24.20
2022-07-26T19:55:01.880Z,23.95
2022-07-26T19:57:31.739Z,23.66
2022-07-26T19:59:58.927Z,23.53
2022-07-26T20:02:27.841Z,23.41
2022-07-26T20:04:55.279Z,23.22
2022-07-26T20:07:22.327Z,23.11
2022-07-26T20:10:02.130Z,22.99
2022-07-26T20:12:29.840Z,22.81
2022-07-26T20:14:56.779Z,22.79
2022-07-26T20:17:26.204Z,22.88
2022-07-26T20:19:54.801Z,22.76
2022-07-26T20:22:21.993Z,22.91
2022-07-26T20:24:48.972Z,23.03
2022-07-26T20:27:16.936Z,22.94
2022-07-26T20:29:43.996Z,22.74
2022-07-26T20:32:11.210Z,22.86
2022-07-26T20:34:38.647Z,22.93
2022-07-26T20:37:10.581Z,22.94
2022-07-26T20:39:39.113Z,22.96
2022-07-26T20:42:06.685Z,22.92
2022-07-26T20:44:36.446Z,22.85
2022-07-26T20:47:06.727Z,22.57
2022-07-26T20:49:33.680Z,22.44
2022-07-26T20:52:01.386Z,22.32
2022-07-26T20:54:29.702Z,22.26
2022-07-26T20:56:57.369Z,22.21
2022-07-26T20:59:24.410Z,22.19
2022-07-26T21:01:51.565Z,22.09
2022-07-26T21:04:18.906Z,21.97
2022-07-26T21:06:45.786Z,21.80
2022-07-26T21:09:14.112Z,21.67
2022-07-26T21:11:48.321Z,21.61
2022-07-26T21:14:19.016Z,21.60
2022-07-26T21:16:46.745Z,21.55
2022-07-26T21:19:14.237Z,21.49
2022-07-26T21:21:41.605Z,21.48
2022-07-26T21:24:09.164Z,21.51
2022-07-26T21:26:36.102Z,21.52
2022-07-26T21:29:05.172Z,21.53
2022-07-26T21:31:32.311Z,21.58
2022-07-26T21:33:59.377Z,21.56
2022-07-26T21:36:26.468Z,21.64
2022-07-26T21:38:53.313Z,21.77
2022-07-26T21:41:21.061Z,21.92
2022-07-26T21:43:48.048Z,22.07
2022-07-26T21:46:16.600Z,22.10
2022-07-26T21:48:46.811Z,22.05
2022-07-26T21:51:13.678Z,21.98
2022-07-26T21:53:40.960Z,21.89
2022-07-26T21:56:08.291Z,21.84
2022-07-26T21:58:36.911Z,21.78
2022-07-26T22:01:06.477Z,21.78
2022-07-26T22:03:37.015Z,21.77
2022-07-26T22:06:06.183Z,21.53
2022-07-26T22:08:33.923Z,21.57
2022-07-26T22:11:01.228Z,21.62
2022-07-26T22:13:28.154Z,21.61
2022-07-26T22:15:55.078Z,21.42
2022-07-26T22:18:22.207Z,21.51
2022-07-26T22:20:50.431Z,21.54
2022-07-26T22:23:19.513Z,21.64
2022-07-26T22:25:47.050Z,21.70
2022-07-26T22:28:18.326Z,21.68
2022-07-26T22:30:46.857Z,21.42
2022-07-26T22:33:14.262Z,21.33
2022-07-26T22:35:41.425Z,21.22
2022-07-26T22:38:11.499Z,21.17
2022-07-26T22:40:41.087Z,21.16
2022-07-26T22:43:09.901Z,21.21
2022-07-26T22:45:37.499Z,20.93
2022-07-26T22:48:06.083Z,21.00
2022-07-26T22:50:33.853Z,21.15
2022-07-26T22:53:01.425Z,21.26
2022-07-26T22:55:31.124Z,21.31
2022-07-26T22:57:58.144Z,21.42
2022-07-26T23:00:25.134Z,21.53
2022-07-26T23:02:52.301Z,21.56
2022-07-26T23:05:20.029Z,21.64
2022-07-26T23:07:48.553Z,21.71
2022-07-26T23:10:17.118Z,21.71
2022-07-26T23:12:45.422Z,21.65
2022-07-26T23:15:12.779Z,21.63
2022-07-26T23:17:40.371Z,21.61
2022-07-26T23:20:09.901Z,21.64
2022-07-26T23:22:37.364Z,21.64
2022-07-26T23:25:05.830Z,21.66
2022-07-26T23:27:32.720Z,21.64
2022-07-26T23:30:00.926Z,21.66
2022-07-26T23:32:27.764Z,21.69
2022-07-26T23:34:54.677Z,21.72
2022-07-26T23:37:21.507Z,21.75
2022-07-26T23:39:48.539Z,21.79
2022-07-26T23:42:15.467Z,21.82
2022-07-26T23:44:42.299Z,21.82
2022-07-26T23:47:10.585Z,21.79
2022-07-26T23:49:37.695Z,21.78
2022-07-26T23:52:05.319Z,21.74
2022-07-26T23:54:32.403Z,21.66
2022-07-26T23:56:59.903Z,21.66
2022-07-26T23:59:26.816Z,21.61
